createdAt,value
2019-06-10T00:01:23.640Z,66.70
2019-06-10T00:03:51.839Z,66.40
2019-06-10T00:06:20.790Z,67.10
2019-06-10T00:08:46.302Z,67.00
2019-06-10T00:11:12.534Z,68.20
2019-06-10T00:13:41.297Z,70.40
2019-06-10T00:16:08.022Z,69.60
2019-06-10T00:18:41.782Z,71.10
2019-06-10T00:21:04.944Z,71.70
2019-06-10T00:23:32.002Z,73.50
2019-06-10T00:26:01.268Z,74.50
2019-06-10T00:28:26.649Z,74.90
2019-06-10T00:30:52.879Z,75.60
2019-06-10T00:33:21.446Z,75.60
2019-06-10T00:35:47.289Z,73.00
2019-06-10T00:38:14.549Z,70.50
2019-06-10T00:40:41.673Z,68.40
2019-06-10T00:43:09.180Z,69.50
2019-06-10T00:45:36.622Z,70.30
2019-06-10T00:48:12.354Z,69.40
2019-06-10T00:50:31.204Z,67.40
2019-06-10T00:52:57.444Z,66.70
2019-06-10T00:55:23.789Z,65.30
2019-06-10T00:57:50.968Z,64.80
2019-06-10T01:00:25.239Z,70.50
2019-06-10T01:02:46.201Z,70.80
2019-06-10T01:05:15.299Z,70.10
2019-06-10T01:07:41.503Z,69.00
2019-06-10T01:10:09.005Z,66.90
2019-06-10T01:12:35.384Z,67.30
2019-06-10T01:15:03.175Z,72.50
2019-06-10T01:17:31.113Z,75.50
2019-06-10T01:19:57.774Z,76.70
2019-06-10T01:22:24.105Z,73.90
2019-06-10T01:24:51.054Z,74.10
2019-06-10T01:27:18.060Z,74.20
2019-06-10T01:29:44.430Z,72.20
2019-06-10T01:32:12.277Z,71.90
2019-06-10T01:34:41.544Z,73.20
2019-06-10T01:37:07.257Z,73.30
2019-06-10T01:39:33.494Z,72.40
2019-06-10T01:42:00.593Z,73.60
2019-06-10T01:44:27.038Z,73.20
2019-06-10T01:46:53.289Z,74.90
2019-06-10T01:49:21.355Z,74.90
2019-06-10T01:51:47.670Z,72.50
2019-06-10T01:54:16.443Z,73.00
2019-06-10T01:56:42.820Z,73.00
2019-06-10T01:59:12.146Z,73.10
2019-06-10T02:01:45.118Z,73.60
2019-06-10T02:04:14.369Z,74.30
2019-06-10T02:06:40.597Z,75.70
2019-06-10T02:09:07.128Z,74.30
2019-06-10T02:11:34.269Z,75.00
2019-06-10T02:14:01.499Z,75.80
2019-06-10T02:16:27.759Z,77.00
2019-06-10T02:19:00.252Z,76.00
2019-06-10T02:21:24.409Z,74.80
2019-06-10T02:23:52.063Z,75.40
2019-06-10T02:26:19.906Z,76.90
2019-06-10T02:28:46.934Z,76.50
2019-06-10T02:31:17.505Z,76.50
2019-06-10T02:33:42.137Z,76.20
2019-06-10T02:36:08.514Z,76.50
2019-06-10T02:38:39.275Z,76.50
2019-06-10T02:41:04.751Z,75.30
2019-06-10T02:43:36.152Z,75.60
2019-06-10T02:45:59.485Z,76.40
2019-06-10T02:48:30.274Z,76.30
2019-06-10T02:51:03.892Z,75.80
2019-06-10T02:53:35.598Z,75.30
2019-06-10T02:55:59.944Z,73.00
2019-06-10T02:58:31.525Z,72.40
2019-06-10T03:00:54.804Z,70.60
2019-06-10T03:03:31.680Z,70.80
2019-06-10T03:05:49.423Z,71.80
2019-06-10T03:08:16.185Z,71.20
2019-06-10T03:10:44.418Z,71.50
2019-06-10T03:13:12.676Z,71.20
2019-06-10T03:15:43.891Z,71.90
2019-06-10T03:18:12.806Z,72.50
2019-06-10T03:20:38.515Z,72.30
2019-06-10T03:23:05.094Z,73.60
2019-06-10T03:25:32.789Z,70.60
2019-06-10T03:27:59.173Z,71.10
2019-06-10T03:30:37.605Z,72.40
2019-06-10T03:32:55.545Z,71.00
2019-06-10T03:35:24.218Z,71.20
2019-06-10T03:37:52.688Z,72.20
2019-06-10T03:40:18.603Z,71.60
2019-06-10T03:42:45.258Z,74.80
2019-06-10T03:45:12.824Z,75.60
2019-06-10T03:47:39.256Z,77.80
2019-06-10T03:50:06.401Z,77.30
2019-06-10T03:52:32.640Z,78.00
2019-06-10T03:54:58.926Z,75.40
2019-06-10T03:57:26.826Z,76.30
2019-06-10T03:59:53.301Z,76.70
2019-06-10T04:02:19.539Z,76.40
2019-06-10T04:04:45.796Z,76.80
2019-06-10T04:07:14.230Z,78.60
2019-06-10T04:09:42.384Z,78.90
2019-06-10T04:12:08.309Z,79.40
2019-06-10T04:14:34.555Z,83.40
2019-06-10T04:17:02.698Z,81.90
2019-06-10T04:19:29.343Z,83.90
2019-06-10T04:21:56.084Z,84.40
2019-06-10T04:24:24.243Z,83.40
2019-06-10T04:26:52.159Z,80.60
2019-06-10T04:29:18.505Z,81.80
2019-06-10T04:31:44.993Z,81.20
2019-06-10T04:34:12.400Z,82.10
2019-06-10T04:36:42.074Z,79.80
2019-06-10T04:39:07.737Z,79.60
2019-06-10T04:41:33.980Z,78.70
2019-06-10T04:44:02.697Z,79.90
2019-06-10T04:46:29.643Z,81.20
2019-06-10T04:48:56.077Z,82.00
2019-06-10T04:51:23.864Z,80.80
2019-06-10T04:53:52.407Z,80.80
2019-06-10T04:56:19.690Z,78.50
2019-06-10T04:58:46.197Z,77.20
2019-06-10T05:01:12.462Z,75.60
2019-06-10T05:03:38.784Z,75.10
2019-06-10T05:06:05.036Z,74.80
2019-06-10T05:08:33.818Z,76.60
2019-06-10T05:10:59.515Z,77.00
2019-06-10T05:13:27.030Z,78.40
2019-06-10T05:15:54.115Z,78.40
2019-06-10T05:18:23.837Z,84.90
2019-06-10T05:20:57.711Z,84.00
2019-06-10T05:23:16.653Z,82.10
2019-06-10T05:25:42.896Z,74.90
2019-06-10T05:28:09.116Z,75.60
2019-06-10T05:30:35.354Z,75.70
2019-06-10T05:33:02.987Z,74.00
2019-06-10T05:35:29.927Z,72.90
2019-06-10T05:37:57.405Z,70.70
2019-06-10T05:40:25.155Z,70.90
2019-06-10T05:42:52.880Z,74.00
2019-06-10T05:45:19.349Z,72.50
2019-06-10T05:47:45.937Z,66.80
2019-06-10T05:50:12.939Z,69.00
2019-06-10T05:52:39.401Z,65.30
2019-06-10T05:55:05.841Z,65.30
2019-06-10T05:57:34.123Z,61.90
2019-06-10T06:00:02.988Z,58.00
2019-06-10T06:02:29.837Z,56.40
2019-06-10T06:04:56.424Z,53.70
2019-06-10T06:07:22.649Z,53.20
2019-06-10T06:09:48.984Z,53.20
2019-06-10T06:12:15.322Z,53.80
2019-06-10T06:14:42.585Z,52.90
2019-06-10T06:17:09.106Z,57.90
2019-06-10T06:19:37.319Z,60.20
2019-06-10T06:22:03.572Z,63.10
2019-06-10T06:24:29.902Z,58.60
2019-06-10T06:26:56.239Z,58.20
2019-06-10T06:29:22.569Z,58.40
2019-06-10T06:31:48.793Z,56.80
2019-06-10T06:34:15.035Z,55.70
2019-06-10T06:36:42.281Z,53.20
2019-06-10T06:39:09.105Z,52.20
2019-06-10T06:41:37.178Z,52.30
2019-06-10T06:44:03.777Z,54.10
2019-06-10T06:46:32.516Z,52.80
2019-06-10T06:48:58.148Z,48.70
2019-06-10T06:51:35.816Z,49.60
2019-06-10T06:53:56.125Z,50.30
2019-06-10T06:56:23.054Z,48.70
2019-06-10T06:58:49.288Z,48.70
2019-06-10T07:01:15.633Z,50.40
2019-06-10T07:03:45.136Z,52.80
2019-06-10T07:06:13.040Z,55.10
2019-06-10T07:08:39.384Z,55.30
2019-06-10T07:11:07.613Z,57.80
2019-06-10T07:13:35.919Z,56.10
2019-06-10T07:16:03.019Z,55.50
2019-06-10T07:18:29.510Z,52.40
2019-06-10T07:20:55.757Z,53.30
2019-06-10T07:23:22.529Z,51.60
2019-06-10T07:25:49.193Z,52.30
2019-06-10T07:28:15.538Z,52.40
2019-06-10T07:30:47.247Z,52.50
2019-06-10T07:33:12.173Z,51.70
2019-06-10T07:35:38.946Z,48.70
2019-06-10T07:38:05.461Z,49.30
2019-06-10T07:40:33.406Z,52.10
2019-06-10T07:43:02.234Z,48.60
2019-06-10T07:45:27.966Z,48.70
2019-06-10T07:47:54.452Z,48.90
2019-06-10T07:50:22.711Z,49.20
2019-06-10T07:52:49.012Z,49.30
2019-06-10T07:55:15.449Z,49.10
2019-06-10T07:57:43.833Z,49.30
2019-06-10T08:00:12.533Z,47.50
2019-06-10T08:02:39.719Z,48.10
2019-06-10T08:05:07.207Z,46.60
2019-06-10T08:07:35.120Z,46.70
2019-06-10T08:10:04.294Z,45.70
2019-06-10T08:12:32.567Z,46.70
2019-06-10T08:14:59.360Z,46.20
2019-06-10T08:17:25.689Z,44.70
2019-06-10T08:19:54.385Z,45.20
2019-06-10T08:22:32.988Z,44.90
2019-06-10T08:24:48.498Z,44.40
2019-06-10T08:27:15.400Z,45.30
2019-06-10T08:29:46.200Z,43.70
2019-06-10T08:32:10.237Z,44.70
2019-06-10T08:34:37.955Z,42.60
2019-06-10T08:37:04.676Z,40.70
2019-06-10T08:39:33.469Z,40.70
2019-06-10T08:41:59.768Z,40.40
2019-06-10T08:44:26.006Z,37.90
2019-06-10T08:46:52.506Z,36.50
2019-06-10T08:49:18.973Z,33.50
2019-06-10T08:51:48.137Z,29.90
2019-06-10T08:54:13.352Z,28.90
2019-06-10T08:56:40.120Z,29.10
2019-06-10T08:59:06.421Z,27.70
2019-06-10T09:01:33.456Z,28.00
2019-06-10T09:04:02.904Z,28.90
2019-06-10T09:06:28.700Z,26.30
2019-06-10T09:08:54.936Z,24.90
2019-06-10T09:11:23.559Z,26.30
2019-06-10T09:13:50.434Z,26.10
2019-06-10T09:16:19.514Z,26.10
2019-06-10T09:18:48.024Z,26.20
2019-06-10T09:21:13.734Z,25.80
2019-06-10T09:23:41.101Z,24.70
2019-06-10T09:26:08.195Z,25.20
2019-06-10T09:28:34.446Z,25.90
2019-06-10T09:31:03.665Z,27.40
2019-06-10T09:33:28.926Z,27.60
2019-06-10T09:35:55.267Z,25.10
2019-06-10T09:38:22.335Z,23.70
2019-06-10T09:41:00.742Z,22.50
2019-06-10T09:43:22.580Z,18.60
2019-06-10T09:45:51.361Z,19.30
2019-06-10T09:48:19.474Z,20.10
2019-06-10T09:50:51.382Z,20.60
2019-06-10T09:53:26.683Z,20.80
2019-06-10T09:55:46.040Z,20.90
2019-06-10T09:58:12.362Z,19.80
2019-06-10T10:01:13.264Z,19.90
2019-06-10T10:03:41.852Z,18.60
2019-06-10T10:06:15.318Z,21.30
2019-06-10T10:08:36.700Z,21.50
2019-06-10T10:11:03.227Z,22.10
2019-06-10T10:13:29.871Z,20.80
2019-06-10T10:15:56.460Z,22.20
2019-06-10T10:18:23.602Z,21.60
2019-06-10T10:20:53.162Z,23.70
2019-06-10T10:23:18.456Z,25.30
2019-06-10T10:25:47.629Z,25.00
2019-06-10T10:28:13.463Z,24.10
2019-06-10T10:30:42.516Z,21.90
2019-06-10T10:33:07.946Z,23.00
2019-06-10T10:35:34.281Z,23.70
2019-06-10T10:38:03.705Z,21.40
2019-06-10T10:40:28.832Z,19.10
2019-06-10T10:43:10.199Z,19.50
2019-06-10T10:45:23.497Z,19.80
2019-06-10T10:47:51.843Z,21.30
2019-06-10T10:50:18.569Z,22.90
2019-06-10T10:52:46.327Z,24.10
2019-06-10T10:55:14.179Z,24.10
2019-06-10T10:57:41.249Z,22.70
2019-06-10T11:00:09.001Z,23.30
2019-06-10T11:02:35.333Z,23.40
2019-06-10T11:05:01.878Z,24.30
2019-06-10T11:07:28.115Z,24.20
2019-06-10T11:09:56.714Z,24.30
2019-06-10T11:12:23.389Z,24.60
2019-06-10T11:14:54.405Z,23.90
2019-06-10T11:17:22.191Z,24.20
2019-06-10T11:19:49.320Z,26.30
2019-06-10T11:22:15.819Z,25.20
2019-06-10T11:24:44.608Z,24.20
2019-06-10T11:27:12.736Z,23.90
2019-06-10T11:29:38.433Z,23.00
2019-06-10T11:32:04.801Z,24.10
2019-06-10T11:34:33.255Z,26.20
2019-06-10T11:36:59.282Z,26.80
2019-06-10T11:39:25.502Z,26.40
2019-06-10T11:41:53.283Z,26.30
2019-06-10T11:44:21.966Z,27.40
2019-06-10T11:46:48.606Z,28.80
2019-06-10T11:49:14.957Z,27.40
2019-06-10T11:51:41.184Z,28.50
2019-06-10T11:54:07.410Z,29.90
2019-06-10T11:56:33.776Z,29.20
2019-06-10T11:59:04.094Z,30.70
2019-06-10T12:01:28.452Z,30.30
2019-06-10T12:03:57.628Z,29.20
2019-06-10T12:06:23.268Z,29.10
2019-06-10T12:08:51.388Z,29.70
2019-06-10T12:11:17.624Z,30.70
2019-06-10T12:13:43.965Z,29.20
2019-06-10T12:18:38.446Z,28.50
2019-06-10T12:21:04.822Z,26.70
2019-06-10T12:23:33.637Z,25.60
2019-06-10T12:26:00.652Z,26.50
2019-06-10T12:28:27.201Z,26.80
2019-06-10T12:30:57.865Z,27.80
2019-06-10T12:33:25.177Z,28.80
2019-06-10T12:35:51.067Z,28.50
2019-06-10T12:38:17.857Z,30.00
2019-06-10T12:40:44.095Z,31.50
2019-06-10T12:43:12.700Z,31.20
2019-06-10T12:45:38.897Z,31.20
2019-06-10T12:48:06.928Z,30.80
2019-06-10T12:50:33.323Z,31.50
2019-06-10T12:53:00.691Z,31.00
2019-06-10T12:55:39.251Z,31.50
2019-06-10T12:57:56.183Z,32.20
2019-06-10T13:00:26.390Z,32.00
2019-06-10T13:02:53.122Z,31.70
2019-06-10T13:05:22.684Z,30.80
2019-06-10T13:07:49.280Z,30.20
2019-06-10T13:10:28.446Z,29.20
2019-06-10T13:12:55.867Z,29.00
2019-06-10T13:15:22.864Z,30.90
2019-06-10T13:17:49.275Z,30.20
2019-06-10T13:20:15.618Z,31.90
2019-06-10T13:22:43.216Z,31.40
2019-06-10T13:25:13.229Z,31.30
2019-06-10T13:27:38.525Z,31.50
2019-06-10T13:30:06.081Z,32.50
2019-06-10T13:32:32.526Z,32.50
2019-06-10T13:34:58.964Z,32.10
2019-06-10T13:37:25.205Z,31.70
2019-06-10T13:39:52.464Z,32.60
2019-06-10T13:42:18.780Z,33.50
2019-06-10T13:44:45.028Z,33.20
2019-06-10T13:47:14.373Z,33.20
2019-06-10T13:49:39.510Z,34.20
2019-06-10T13:52:11.613Z,34.70
2019-06-10T13:54:33.907Z,32.90
2019-06-10T13:57:01.485Z,33.20
2019-06-10T13:59:28.291Z,31.90
2019-06-10T14:01:54.620Z,31.60
2019-06-10T14:04:25.277Z,32.10
2019-06-10T14:06:50.688Z,30.50
2019-06-10T14:09:17.588Z,30.60
2019-06-10T14:11:43.830Z,30.20
2019-06-10T14:14:10.076Z,30.20
2019-06-10T14:16:36.612Z,29.10
2019-06-10T14:19:05.816Z,28.80
2019-06-10T14:21:33.112Z,29.90
2019-06-10T14:23:59.566Z,29.50
2019-06-10T14:26:37.916Z,29.60
2019-06-10T14:28:53.941Z,28.70
2019-06-10T14:31:38.644Z,28.60
2019-06-10T14:33:48.312Z,28.60
2019-06-10T14:36:16.722Z,28.70
2019-06-10T14:38:42.685Z,29.40
2019-06-10T14:41:10.010Z,29.00
2019-06-10T14:43:36.463Z,29.40
2019-06-10T14:46:02.793Z,29.80
2019-06-10T14:48:29.125Z,29.90
2019-06-10T14:50:55.392Z,30.00
2019-06-10T14:53:23.042Z,30.20
2019-06-10T14:55:52.895Z,30.50
2019-06-10T14:58:19.431Z,30.80
2019-06-10T15:00:45.971Z,30.80
2019-06-10T15:03:16.180Z,30.50
2019-06-10T15:05:43.170Z,30.10
2019-06-10T15:08:09.362Z,30.50
2019-06-10T15:10:35.777Z,30.70
2019-06-10T15:13:02.310Z,30.60
2019-06-10T15:15:28.660Z,31.60
2019-06-10T15:17:55.019Z,30.50
2019-06-10T15:20:22.728Z,31.40
2019-06-10T15:22:49.186Z,31.20
2019-06-10T15:25:17.574Z,31.90
2019-06-10T15:27:44.276Z,31.80
2019-06-10T15:30:15.818Z,32.00
2019-06-10T15:32:39.061Z,32.30
2019-06-10T15:35:06.117Z,32.40
2019-06-10T15:37:33.067Z,31.60
2019-06-10T15:39:59.512Z,31.40
2019-06-10T15:42:25.757Z,31.60
2019-06-10T15:44:55.855Z,30.90
2019-06-10T15:47:26.337Z,32.90
2019-06-10T15:49:49.441Z,31.40
2019-06-10T15:52:17.518Z,31.40
2019-06-10T15:54:43.814Z,31.50
2019-06-10T15:57:26.554Z,31.10
2019-06-10T15:59:38.191Z,30.90
2019-06-10T16:02:04.430Z,30.80
2019-06-10T16:04:34.939Z,30.60
2019-06-10T16:06:58.806Z,30.50
2019-06-10T16:09:25.054Z,30.80
2019-06-10T16:11:53.704Z,30.80
2019-06-10T16:14:20.723Z,30.60
2019-06-10T16:16:48.414Z,31.60
2019-06-10T16:19:16.291Z,30.90
2019-06-10T16:21:42.966Z,30.70
2019-06-10T16:24:09.337Z,30.80
2019-06-10T16:26:35.990Z,30.90
2019-06-10T16:29:02.788Z,31.40
2019-06-10T16:31:29.174Z,33.30
2019-06-10T16:33:55.435Z,32.20
2019-06-10T16:36:24.420Z,31.50
2019-06-10T16:38:49.901Z,30.80
2019-06-10T16:41:17.446Z,30.20
2019-06-10T16:43:43.869Z,30.00
2019-06-10T16:46:10.197Z,31.50
2019-06-10T16:48:36.458Z,31.60
2019-06-10T16:51:03.455Z,31.50
2019-06-10T16:53:32.183Z,31.30
2019-06-10T16:55:58.158Z,31.70
2019-06-10T16:58:27.943Z,31.90
2019-06-10T17:00:52.826Z,31.00
2019-06-10T17:03:20.358Z,31.40
2019-06-10T17:05:47.205Z,32.30
2019-06-10T17:08:13.529Z,32.20
2019-06-10T17:10:39.769Z,33.30
2019-06-10T17:13:07.904Z,33.30
2019-06-10T17:15:34.249Z,33.10
2019-06-10T17:18:02.649Z,33.90
2019-06-10T17:20:29.740Z,33.70
2019-06-10T17:22:56.154Z,33.70
2019-06-10T17:25:23.897Z,33.70
2019-06-10T17:27:52.717Z,33.50
2019-06-10T17:30:19.488Z,34.00
2019-06-10T17:32:46.088Z,33.30
2019-06-10T17:35:14.553Z,33.90
2019-06-10T17:37:43.077Z,35.00
2019-06-10T17:40:09.038Z,34.40
2019-06-10T17:42:38.446Z,34.00
2019-06-10T17:45:04.633Z,34.80
2019-06-10T17:47:32.358Z,35.10
2019-06-10T17:49:59.017Z,38.50
2019-06-10T17:52:25.959Z,40.50
2019-06-10T17:54:52.601Z,42.60
2019-06-10T17:57:19.221Z,47.00
2019-06-10T17:59:45.456Z,52.00
2019-06-10T18:02:12.343Z,54.40
2019-06-10T18:04:39.142Z,55.60
2019-06-10T18:07:05.388Z,57.80
2019-06-10T18:09:34.759Z,58.40
2019-06-10T18:11:59.770Z,60.10
2019-06-10T18:14:26.016Z,58.10
2019-06-10T18:16:52.532Z,56.10
2019-06-10T18:19:18.778Z,56.60
2019-06-10T18:21:45.025Z,56.70
2019-06-10T18:24:12.753Z,57.00
2019-06-10T18:26:39.144Z,55.10
2019-06-10T18:29:08.976Z,54.50
2019-06-10T18:31:35.269Z,55.20
2019-06-10T18:34:02.503Z,56.50
2019-06-10T18:36:29.984Z,57.10
2019-06-10T18:38:56.928Z,57.60
2019-06-10T18:41:23.184Z,57.90
2019-06-10T18:43:49.435Z,58.50
2019-06-10T18:46:15.666Z,58.50
2019-06-10T18:48:43.063Z,58.90
2019-06-10T18:51:12.321Z,60.10
2019-06-10T18:53:39.023Z,60.40
2019-06-10T18:56:05.441Z,61.80
2019-06-10T18:58:34.043Z,63.70
2019-06-10T19:01:05.282Z,64.70
2019-06-10T19:03:28.516Z,63.70
2019-06-10T19:05:54.858Z,63.20
2019-06-10T19:08:22.378Z,65.90
2019-06-10T19:10:49.038Z,67.90
2019-06-10T19:13:15.279Z,68.90
2019-06-10T19:15:42.586Z,69.50
2019-06-10T19:18:08.961Z,71.10
2019-06-10T19:20:38.707Z,74.30
2019-06-10T19:23:03.635Z,76.90
2019-06-10T19:25:30.910Z,80.10
2019-06-10T19:27:58.448Z,81.70
2019-06-10T19:30:25.097Z,83.00
2019-06-10T19:32:52.792Z,85.80
2019-06-10T19:35:19.501Z,90.00
2019-06-10T19:37:45.836Z,91.80
2019-06-10T19:40:12.597Z,92.00
2019-06-10T19:42:40.199Z,92.00
2019-06-10T19:45:07.370Z,91.70
2019-06-10T19:47:34.611Z,91.20
2019-06-10T19:50:04.956Z,91.20
2019-06-10T19:52:32.519Z,89.80
2019-06-10T19:54:59.377Z,90.10
2019-06-10T19:57:25.712Z,88.60
2019-06-10T20:00:07.405Z,86.70
2019-06-10T20:02:22.464Z,86.00
2019-06-10T20:04:48.850Z,86.60
2019-06-10T20:07:15.086Z,87.50
2019-06-10T20:09:44.511Z,87.00
2019-06-10T20:12:09.449Z,85.70
2019-06-10T20:14:36.428Z,87.20
2019-06-10T20:17:03.330Z,87.50
2019-06-10T20:19:29.671Z,86.60
2019-06-10T20:21:55.910Z,85.50
2019-06-10T20:24:22.446Z,84.70
2019-06-10T20:26:48.804Z,85.30
2019-06-10T20:29:15.029Z,85.40
2019-06-10T20:32:01.155Z,86.70
2019-06-10T20:34:27.487Z,84.80
2019-06-10T20:36:53.837Z,82.70
2019-06-10T20:39:24.329Z,84.10
2019-06-10T20:41:52.303Z,85.30
2019-06-10T20:44:16.944Z,87.60
2019-06-10T20:46:44.991Z,91.20
2019-06-10T20:49:13.534Z,92.50
2019-06-10T20:51:52.077Z,93.00
2019-06-10T20:54:07.622Z,92.80
2019-06-10T20:56:33.870Z,94.20
2019-06-10T20:59:02.622Z,95.60
2019-06-10T21:01:28.702Z,96.80
2019-06-10T21:03:55.031Z,94.60
2019-06-10T21:06:22.635Z,93.50
2019-06-10T21:08:51.929Z,94.50
2019-06-10T21:11:18.164Z,95.50
2019-06-10T21:13:48.648Z,94.50
2019-06-10T21:16:12.930Z,94.00
2019-06-10T21:18:40.312Z,94.10
2019-06-10T21:21:06.740Z,95.00
2019-06-10T21:23:33.254Z,94.50
2019-06-10T21:25:59.501Z,94.20
2019-06-10T21:28:25.745Z,95.10
2019-06-10T21:30:54.906Z,93.50
2019-06-10T21:33:43.800Z,94.00
2019-06-10T21:36:08.381Z,95.00
2019-06-10T21:38:34.617Z,94.90
2019-06-10T21:41:03.034Z,95.30
2019-06-10T21:43:29.018Z,94.80
2019-06-10T21:45:57.789Z,94.90
2019-06-10T21:48:23.872Z,94.70
2019-06-10T21:50:54.216Z,95.40
2019-06-10T21:53:18.252Z,95.70
2019-06-10T21:55:45.189Z,96.10
2019-06-10T21:58:11.593Z,95.90
2019-06-10T22:00:53.873Z,95.20
2019-06-10T22:03:08.176Z,95.70
2019-06-10T22:05:34.405Z,94.20
2019-06-10T22:08:02.985Z,94.30
2019-06-10T22:10:28.890Z,94.10
2019-06-10T22:12:55.764Z,94.70
2019-06-10T22:15:22.565Z,94.60
2019-06-10T22:17:50.416Z,94.40
2019-06-10T22:20:18.041Z,94.40
2019-06-10T22:22:44.524Z,94.20
2019-06-10T22:25:13.031Z,93.60
2019-06-10T22:27:39.194Z,93.80
2019-06-10T22:30:11.247Z,92.30
2019-06-10T22:32:34.360Z,91.40
2019-06-10T22:35:02.863Z,90.60
2019-06-10T22:37:28.729Z,91.90
2019-06-10T22:39:56.638Z,91.60
2019-06-10T22:42:23.546Z,92.20
2019-06-10T22:44:49.781Z,92.00
2019-06-10T22:47:16.440Z,91.40
2019-06-10T22:49:43.189Z,90.60
2019-06-10T22:52:12.422Z,90.80
2019-06-10T22:54:38.407Z,91.00
2019-06-10T22:57:04.644Z,90.50
2019-06-10T22:59:30.896Z,91.70
2019-06-10T23:01:58.200Z,91.00
2019-06-10T23:04:25.278Z,89.50
2019-06-10T23:06:53.350Z,89.80
2019-06-10T23:09:22.208Z,90.90
2019-06-10T23:11:48.514Z,91.50
2019-06-10T23:14:14.830Z,90.30
2019-06-10T23:16:42.762Z,90.40
2019-06-10T23:19:09.210Z,90.30
2019-06-10T23:21:35.833Z,91.00
2019-06-10T23:24:03.129Z,90.10
2019-06-10T23:26:30.030Z,89.30
2019-06-10T23:28:58.493Z,89.10
2019-06-10T23:31:24.512Z,90.40
2019-06-10T23:33:53.478Z,90.90
2019-06-10T23:36:19.128Z,91.80
2019-06-10T23:38:45.474Z,91.60
2019-06-10T23:41:13.020Z,90.90
2019-06-10T23:43:39.592Z,91.80
2019-06-10T23:46:06.005Z,91.50
2019-06-10T23:48:32.958Z,92.30
2019-06-10T23:51:00.467Z,91.20
2019-06-10T23:53:27.534Z,92.50
2019-06-10T23:55:54.693Z,92.20
2019-06-10T23:58:22.840Z,92.10
